1995 Very Intense Tropical Cyclone AGNIELLE:DARYL (1995319S05092)


IBTrACS version v04r00. Visit IBTrACS website for data access.
Please direct all questions to the IBTrACS Q and A forum

Storm track - Intensity - Wind Radii - Intensity Data - Source Data - All data

Summary Information

Satellite image near maximum intensity
Storm ID 1995319S05092
Start Nov 15 00Z
Max Intensity 150 kt (Nov 21 06Z), 915 mb (Nov 20 13Z)
End Nov 27 06Z
ATCF IDs ,SH011996
Track status Best track data.

Storm track plot

Map of storm track

Intensity plots

Map of storm track

Radial wind information

Map of storm track

Position and Intensity Table

BASIN ISO_TIME_________ NATURE LAT LON WMO WIND WMO PRES USA WIND REUNION WIND REUNION PRES BOM WIND BOM PRES NEUMANN WIND
degrees north degrees east kts mb kts kts mb kts mb kts
SI 1995-11-15 00:00:00 TS -4.60 92.30 20 20
SI 03:00:00 TS -4.69 92.54 20 20
SI 06:00:00 TS -4.80 92.80 20 20
SI 09:00:00 TS -4.94 93.09 20 20
SI 12:00:00 TS -5.10 93.40 20 20
SI 15:00:00 TS -5.23 93.74 20 20
SI 18:00:00 TS -5.40 94.10 20 20
SI 21:00:00 TS -5.61 94.50 20 20
SI 1995-11-16 00:00:00 TS -5.90 94.90 20 20
SI 01:00:00 TS -6.13 95.08 20 1004 20 20 1004 20
SI 03:00:00 TS -6.48 95.41 22 20 1004 22
SI 06:00:00 TS -6.97 95.82 25 20 1004 25
SI 07:00:00 TS -7.15 95.96 20 1004 25 20 1004 25
SI 09:00:00 TS -7.47 96.07 27 21 1003 27
SI 12:00:00 TS -7.93 96.18 30 24 1002 30
SI 13:00:00 TS -8.08 96.21 25 1002 30 25 1002 30
SI 15:00:00 TS -8.34 96.31 30 25 1002 30
SI 18:00:00 TS -8.71 96.43 30 25 1002 30
SI 19:00:00 TS -8.82 96.46 25 1002 30 25 1002 30
SI 21:00:00 TS -9.04 96.52 30 25 1002 30
SI 1995-11-17 00:00:00 TS -9.34 96.60 30 25 1002 30
SI 01:00:00 TS -9.43 96.62 25 1002 30 25 1002 30
SI 03:00:00 TS -9.60 96.67 32 25 1001 32
SI 06:00:00 TS -9.85 96.71 35 27 998 25 1000 35
SI 07:00:00 TS -9.94 96.68 25 1000 35 27 997 25 1000 35
SI 09:00:00 TS -10.11 96.63 37 28 996 25 1000 37
SI 12:00:00 TS -10.35 96.49 40 30 995 25 1000 40
SI 13:00:00 TS -10.44 96.44 25 1000 41 30 994 25 1000 41
SI 15:00:00 TS -10.60 96.33 45 32 992 26 999 45
SI 18:00:00 TS -10.81 96.04 50 35 990 29 998 50
SI 19:00:00 TS -10.86 95.91 30 998 50 35 989 30 998 50
SI 21:00:00 TS -10.96 95.61 52 37 989 31 997 52
SI 1995-11-18 00:00:00 TS -11.09 95.10 55 40 988 34 995 55
SI 01:00:00 TS -11.13 94.94 35 995 55 40 988 35 995 55
SI 03:00:00 TS -11.21 94.62 57 40 988 35 995 57
SI 04:00:00 TS -11.24 94.46 35 995 58 40 988 35 995 58
SI 06:00:00 TS -11.32 94.15 60 40 988 38 991 60
SI 07:00:00 TS -11.35 93.99 40 990 60 40 988 40 990 60
SI 09:00:00 TS -11.42 93.66 62 40 988 43 990 62
SI 10:00:00 TS -11.45 93.49 45 990 63 40 988 45 990 63
SI 12:00:00 TS -11.52 93.19 65 40 988 48 986 65
SI 13:00:00 TS -11.55 93.04 50 985 65 40 987 50 985 65
SI 15:00:00 TS -11.60 92.77 65 42 986 50 985 65
SI 16:00:00 TS -11.62 92.63 50 985 65 43 985 50 985 65
SI 18:00:00 TS -11.65 92.37 65 45 984 50 985 65
SI 19:00:00 TS -11.66 92.23 50 985 65 45 982 50 985 65
SI 21:00:00 TS -11.67 91.94 65 47 981 53 981 65
SI 22:00:00 TS -11.67 91.79 55 980 65 48 979 55 980 65
SI 1995-11-19 00:00:00 TS -11.67 91.52 65 50 978 55 980 65
SI 01:00:00 TS -11.68 91.38 55 980 65 50 977 55 980 65
SI 03:00:00 TS -11.68 91.09 67 52 976 58 976 67
SI 04:00:00 TS -11.68 90.93 60 975 68 53 975 60 975 68
SI 06:00:00 TS -11.67 90.63 70 55 975 63 971 70
SI 07:00:00 TS -11.68 90.47 65 970 71 56 973 65 970 71
SI 09:00:00 TS -11.68 90.14 75 60 970 68 966 75
SI 10:00:00 TS -11.68 89.97 70 965 76 61 968 70 965 76
SI 12:00:00 TS -11.67 89.62 65 965 80 65 965 76 961 80
SI 13:00:00 TS -11.67 89.45 81 65 965 80 960 81
SI 15:00:00 TS -11.64 89.12 85 65 965 83 956 85
SI 16:00:00 TS -11.63 88.95 86 65 965 85 955 86
SI 18:00:00 TS -11.60 88.62 65 965 90 65 965 85 951 90
SI 19:00:00 TS -11.59 88.45 91 65 963 85 950 91
SI 21:00:00 TS -11.58 88.13 95 67 960 91 943 95
SI 22:00:00 TS -11.58 87.97 96 68 958 95 940 96
SI 1995-11-20 00:00:00 TS -11.57 87.64 70 955 100 70 955 98 933 100
SI 01:00:00 TS -11.57 87.47 102 71 953 100 930 102
SI 03:00:00 TS -11.55 87.15 107 75 950 103 926 107
SI 04:00:00 TS -11.55 87.00 110 76 948 105 925 110
SI 06:00:00 TS -11.58 86.72 80 945 115 80 945 108 921 115
SI 07:00:00 TS -11.60 86.60 116 81 942 110 920 116
SI 09:00:00 TS -11.62 86.38 120 85 937 110 920 120
SI 10:00:00 TS -11.64 86.27 121 86 934 110 920 121
SI 12:00:00 TS -11.69 86.07 90 930 125 90 930 116 916 125
SI 13:00:00 TS -11.73 85.97 125 90 929 120 915 125
SI 15:00:00 TS -11.84 85.77 127 92 927 120 915 127
SI 16:00:00 TS -11.90 85.68 128 93 926 120 915 128
SI 18:00:00 TS -12.02 85.50 95 925 130 95 925 120 915 130
SI 19:00:00 TS -12.07 85.42 131 94 925 120 915 131
SI 21:00:00 TS -12.18 85.28 135 93 926 116 918 135
SI 22:00:00 TS -12.25 85.21 136 92 926 115 920 136
SI 1995-11-21 00:00:00 TS -12.40 85.05 92 927 140 92 927 115 920 140
SI 01:00:00 TS -12.48 84.96 141 91 927 115 920 141
SI 03:00:00 TS -12.62 84.78 145 91 928 115 920 145
SI 04:00:00 TS -12.69 84.70 146 90 929 115 920 146
SI 06:00:00 TS -12.83 84.56 90 930 150 90 930 111 923 150
SI 07:00:00 TS -12.90 84.49 148 90 930 110 925 148
SI 09:00:00 TS -13.04 84.37 145 90 930 110 925 145
SI 10:00:00 TS -13.11 84.30 143 90 930 110 925 143
SI 12:00:00 TS -13.22 84.15 90 930 140 90 930 103 928 140
SI 13:00:00 TS -13.27 84.08 138 89 931 100 930 138
SI 15:00:00 TS -13.41 83.96 135 87 934 100 930 135
SI 16:00:00 TS -13.47 83.90 133 86 935 100 930 133
SI 18:00:00 TS -13.59 83.79 85 938 130 85 938 96 933 130
SI 19:00:00 TS -13.65 83.73 130 84 939 95 935 130
SI 21:00:00 TS -13.79 83.63 130 82 941 95 935 130
SI 22:00:00 TS -13.86 83.59 130 81 942 95 935 130
SI 1995-11-22 00:00:00 TS -14.02 83.51 80 945 130 80 945 95 938 130
SI 01:00:00 TS -14.10 83.48 130 79 945 95 940 130
SI 03:00:00 TS -14.27 83.42 130 77 947 95 940 130
SI 04:00:00 TS -14.35 83.40 130 76 948 95 940 130
SI 06:00:00 TS -14.53 83.34 75 950 130 75 950 95 940 130
SI 07:00:00 TS -14.62 83.31 129 74 950 95 940 129
SI 09:00:00 TS -14.82 83.26 127 72 952 95 940 127
SI 10:00:00 TS -14.92 83.23 126 71 953 95 940 126
SI 12:00:00 TS -15.13 83.16 70 955 125 70 955 95 940 125
SI 13:00:00 TS -15.22 83.13 125 71 953 95 940 125
SI 15:00:00 TS -15.39 83.06 125 75 950 95 940 125
SI 16:00:00 TS -15.47 83.02 125 76 948 95 940 125
SI 18:00:00 TS -15.65 82.97 80 945 125 80 945 95 940 125
SI 19:00:00 TS -15.74 82.96 125 80 944 95 940 125
SI 21:00:00 TS -15.89 82.94 125 81 942 91 943 125
SI 22:00:00 TS -15.96 82.92 125 81 941 90 945 125
SI 1995-11-23 00:00:00 TS -16.11 82.90 82 940 125 82 940 86 948 125
SI 01:00:00 TS -16.18 82.88 124 82 940 85 950 124
SI 03:00:00 TS -16.34 82.82 122 82 940 81 953 122
SI 04:00:00 TS -16.41 82.79 121 82 940 80 955 121
SI 06:00:00 TS -16.58 82.73 82 940 120 82 940 76 958 120
SI 07:00:00 TS -16.66 82.71 119 81 940 75 960 119
SI 09:00:00 TS -16.80 82.69 117 81 942 75 960 117
SI 10:00:00 TS -16.86 82.68 116 80 943 75 960 116
SI 12:00:00 TS -16.97 82.68 80 945 115 80 945 71 963 115
SI 13:00:00 TS -17.02 82.66 112 80 945 70 965 112
SI 15:00:00 TS -17.09 82.55 107 80 945 70 965 107
SI 16:00:00 TS -17.11 82.49 104 80 945 70 965 104
SI 18:00:00 TS -17.15 82.36 80 945 100 80 945 66 968 100
SI 19:00:00 TS -17.17 82.28 98 78 946 65 970 98
SI 21:00:00 TS -17.18 82.11 95 75 950 61 973 95
SI 22:00:00 TS -17.18 82.01 93 73 951 60 975 93
SI 1995-11-24 00:00:00 TS -17.15 81.79 70 955 90 70 955 56 978 90
SI 01:00:00 TS -17.13 81.69 87 68 956 55 980 87
SI 03:00:00 TS -17.06 81.46 82 66 960 51 981 82
SI 06:00:00 TS -16.95 81.06 62 965 75 62 965 46 984 75
SI 07:00:00 TS -16.92 80.91 72 60 966 45 985 72
SI 09:00:00 TS -16.88 80.59 67 58 970 41 988 67
SI 12:00:00 TS -16.82 80.06 55 975 60 55 975 36 993 60
SI 13:00:00 TS -16.81 79.88 57 53 976 35 995 57
SI 15:00:00 TS -16.78 79.49 52 50 979 31 996 52
SI 18:00:00 TS -16.75 78.89 45 984 45 45 984 26 999 45
SI 19:00:00 TS -16.75 78.69 43 43 985 25 1000 43
SI 21:00:00 TS -16.73 78.33 40 40 988 23 1001 40
SI 1995-11-25 00:00:00 TS -16.74 77.75 35 992 35 35 992 20 1003 35
SI 01:00:00 TS -16.73 77.55 34 33 992 20 1004 34
SI 03:00:00 TS -16.75 77.12 32 31 994 32
SI 06:00:00 TS -16.84 76.46 28 997 30 28 997 30
SI 09:00:00 TS -16.92 75.83 27 26 998 27
SI 12:00:00 TS -17.00 75.27 25 1000 25 25 1000 25
SI 15:00:00 TS -17.10 74.86 25 1000
SI 18:00:00 TS -17.40 74.30 25 1000 25 1000
SI 21:00:00 TS -17.68 73.76 25 1001
SI 1995-11-26 00:00:00 TS -18.00 73.20 25 1002 25 1002
SI 03:00:00 TS -18.38 72.60 22 1003
SI 06:00:00 TS -18.80 72.00 20 1004 20 1004
SI 09:00:00 TS -19.19 71.45 20 1004
SI 12:00:00 TS -19.60 70.90 20 1005 20 1005
SI 15:00:00 TS -20.03 70.31 20 1005
SI 18:00:00 TS -20.50 69.70 20 1005 20 1005
SI 21:00:00 TS -20.99 69.04 20 1005
SI 1995-11-27 00:00:00 TS -21.50 68.40 20 1006 20 1006
SI 03:00:00 TS -22.00 67.83 20 1006
SI 06:00:00 TS -22.50 67.30 20 1006 20 1006

Source Information

Agency Information
USA bsh011996.txt
TOKYO
CMA
HKO
NEWDELHI
REUNION WMO-Best-Tracks.txt:Line=17203:agnielle
BOM IDCKMSTM0S.csv:Line=18270:DARYL
NADI
WELLINGTON
DS824
TD9636
TD9635
NEUMANN tracks.sh:Storm=1037:DARYL/AGNIEL:LE:BSH011996
MLC

All available IBTrACS Data

SEASON BASIN SUBBASIN ISO_TIME_________ NATURE LAT LON WMO WIND WMO PRES WMO AGENCY DIST2LAND LANDFALL IFLAG USA AGENCY USA ATCF_ID USA LAT USA LON USA WIND USA SSHS REUNION LAT REUNION LON REUNION TYPE REUNION WIND REUNION PRES REUNION TNUM REUNION CI BOM LAT BOM LON BOM TYPE BOM WIND BOM PRES BOM CI BOM ROCI BOM EYE BOM POS_METHOD BOM PRES_METHOD NEUMANN LAT NEUMANN LON NEUMANN CLASS NEUMANN WIND STORM SPEED STORM DIR
Year degrees north degrees east kts mb km km degrees north degrees east kts 1 degrees north degrees east kts mb 1 1 degrees north degrees east kts mb 1 nmile nmile degrees north degrees east kts kts degrees
1996 SI WA 1995-11-15 00:00:00 TS -4.60 92.30 797 783 O___________O_ jtwc_sh SH011996 -4.60 92.30 20 -1 -4.60 92.30 TC 20 5 111
1996 SI WA 03:00:00 TS -4.69 92.54 783 760 P___________P_ SH011996 -4.69 92.54 20 -1 -4.69 92.54 TC 20 5 112
1996 SI WA 06:00:00 TS -4.80 92.80 760 737 O___________O_ jtwc_sh SH011996 -4.80 92.80 20 -1 -4.80 92.80 TC 20 6 115
1996 SI WA 09:00:00 TS -4.94 93.09 737 720 P___________P_ SH011996 -4.94 93.09 20 -1 -4.94 93.09 TC 20 7 117
1996 SI WA 12:00:00 TS -5.10 93.40 720 698 O___________O_ jtwc_sh SH011996 -5.10 93.40 20 -1 -5.10 93.40 TC 20 7 114
1996 SI WA 15:00:00 TS -5.23 93.74 698 675 P___________P_ SH011996 -5.23 93.74 20 -1 -5.23 93.74 TC 20 8 113
1996 SI WA 18:00:00 TS -5.40 94.10 675 655 O___________O_ jtwc_sh SH011996 -5.40 94.10 20 -1 -5.40 94.10 TC 20 8 116
1996 SI WA 21:00:00 TS -5.61 94.50 655 646 P___________P_ SH011996 -5.61 94.50 20 -1 -5.61 94.50 TC 20 9 122
1996 SI WA 1995-11-16 00:00:00 TS -5.90 94.90 647 647 O___________O_ jtwc_sh SH011996 -5.90 94.90 20 -1 -5.90 94.90 TC 20 12 132
1996 SI WA 01:00:00 TS -6.13 95.08 20 1004 bom 648 650 P_____O_____P_ SH011996 -6.02 95.03 20 -1 -7.00 95.50 20 20 1004 1.00 161 3 5 -6.02 95.03 TC 20 15 139
1996 SI WA 03:00:00 TS -6.48 95.41 663 657 P_____P_____P_ SH011996 -6.31 95.28 22 -1 -7.16 95.91 20 20 1004 161 -6.31 95.28 TC 22 13 139
1996 SI WA 06:00:00 TS -6.97 95.82 686 680 O_____P_____O_ jtwc_sh SH011996 -6.80 95.60 25 -1 -7.41 96.40 20 20 1004 161 -6.80 95.60 TC 25 13 141
1996 SI WA 07:00:00 TS -7.15 95.96 20 1004 bom 695 695 P_____O_____P_ SH011996 -6.98 95.68 25 -1 -7.50 96.50 20 20 1004 1.00 161 3 5 -6.98 95.68 TC 25 11 153
1996 SI WA 09:00:00 TS -7.47 96.07 720 720 P_____P_____P_ SH011996 -7.35 95.82 27 -1 -7.70 96.58 20 21 1003 161 -7.35 95.82 TC 27 10 164
1996 SI WA 12:00:00 TS -7.93 96.18 755 755 O_____P_____O_ jtwc_sh SH011996 -7.90 96.00 30 -1 -8.00 96.53 20 24 1002 161 -7.90 96.00 TC 30 9 168
1996 SI WA 13:00:00 TS -8.08 96.21 25 1002 bom 775 775 P_____O_____P_ SH011996 -8.07 96.07 30 -1 -8.10 96.50 20 25 1002 2.00 161 3 5 -8.07 96.07 TC 30 9 162
1996 SI WA 15:00:00 TS -8.34 96.31 791 791 P_____P_____P_ SH011996 -8.38 96.21 30 -1 -8.27 96.49 20 25 1002 161 -8.38 96.21 TC 30 8 161
1996 SI WA 18:00:00 TS -8.71 96.43 828 828 O_____P_____O_ jtwc_sh SH011996 -8.80 96.40 30 -1 -8.52 96.49 20 25 1002 161 -8.80 96.40 TC 30 8 162
1996 SI WA 19:00:00 TS -8.82 96.46 25 1002 bom 835 835 P_____O_____P_ SH011996 -8.93 96.44 30 -1 -8.60 96.50 20 25 1002 2.00 161 3 5 -8.93 96.44 TC 30 7 165
1996 SI WA 21:00:00 TS -9.04 96.52 851 851 P_____P_____P_ SH011996 -9.18 96.52 30 -1 -8.77 96.53 20 25 1002 161 -9.18 96.52 TC 30 6 165
1996 SI WA 1995-11-17 00:00:00 TS -9.34 96.60 865 865 O_____P_____O_ jtwc_sh SH011996 -9.50 96.60 30 -1 -9.02 96.59 20 25 1002 161 -9.50 96.60 TC 30 6 166
1996 SI WA 01:00:00 TS -9.43 96.62 25 1002 bom 873 873 P_____O_____P_ SH011996 -9.59 96.63 30 -1 -9.10 96.60 20 25 1002 2.00 161 3 5 -9.59 96.63 TC 30 5 162
1996 SI WA 03:00:00 TS -9.60 96.67 881 881 P_____P_____P_ SH011996 -9.76 96.70 32 -1 -9.26 96.62 20 25 1001 161 -9.76 96.70 TC 32 5 169
1996 SI WA 06:00:00 TS -9.85 96.71 897 897 O____OP_____O_ jtwc_sh SH011996 -10.00 96.80 35 0 -10.00 96.30 2 27 998 2.50 2.50 -9.51 96.62 20 25 1000 161 -10.00 96.80 TC 35 5 0
1996 SI WA 07:00:00 TS -9.94 96.68 25 1000 bom 905 913 P____PO_____P_ SH011996 -10.08 96.85 35 0 -10.06 96.19 2 27 997 -9.60 96.60 20 25 1000 2.00 161 3 5 -10.08 96.85 TC 35 5 195
1996 SI WA 09:00:00 TS -10.11 96.63 929 929 P____PP_____P_ SH011996 -10.24 96.94 37 0 -10.16 95.96 2 28 996 -9.80 96.53 20 25 1000 161 -10.24 96.94 TC 37 5 205
1996 SI WA 12:00:00 TS -10.35 96.49 961 961 O____OP_____O_ jtwc_sh SH011996 -10.50 97.00 40 0 -10.30 95.60 2 30 995 2.50 2.50 -10.11 96.36 20 25 1000 161 -10.50 97.00 TC 40 6 209
1996 SI WA 13:00:00 TS -10.44 96.44 25 1000 bom 968 976 P____PO_____P_ SH011996 -10.60 97.00 41 0 -10.34 95.47 2 30 994 -10.20 96.30 20 25 1000 2.00 161 3 5 -10.60 97.00 TC 41 6 214
1996 SI WA 15:00:00 TS -10.60 96.33 992 992 P____PP_____P_ SH011996 -10.82 96.96 45 0 -10.40 95.20 2 32 992 -10.35 96.18 20 26 999 169 -10.82 96.96 TC 45 7 227
1996 SI WA 18:00:00 TS -10.81 96.04 1031 1031 O____OP_____O_ jtwc_sh SH011996 -11.10 96.70 50 0 -10.50 94.80 3 35 990 3.00 3.00 -10.54 95.97 20 29 998 183 -11.10 96.70 TC 50 7 237
1996 SI WA 19:00:00 TS -10.86 95.91 30 998 bom 1046 1046 P____PO_____P_ SH011996 -11.16 96.54 50 0 -10.54 94.68 3 35 989 -10.60 95.90 20 30 998 2.50 188 3 5 -11.16 96.54 TC 50 9 250
1996 SI WA 21:00:00 TS -10.96 95.61 1077 1077 P____PP_____P_ SH011996 -11.23 96.12 52 0 -10.64 94.44 3 37 989 -10.75 95.76 20 31 997 188 -11.23 96.12 TC 52 10 254
1996 SI WA 1995-11-18 00:00:00 TS -11.09 95.10 1123 1123 O____OP_____O_ jtwc_sh SH011996 -11.30 95.40 55 0 -10.80 94.10 3 40 988 3.00 3.00 -10.95 95.51 20 34 995 188 -11.30 95.40 TC 55 10 256
1996 SI WA 01:00:00 TS -11.13 94.94 35 995 bom 1139 1139 P____PO_____P_ SH011996 -11.33 95.19 55 0 -10.85 93.98 3 40 988 -11.00 95.40 30 35 995 3.00 188 3 5 -11.33 95.19 TC 55 10 256
1996 SI WA 03:00:00 TS -11.21 94.62 1164 1164 P____PP_____P_ SH011996 -11.40 94.79 57 0 -10.96 93.75 3 40 988 -11.07 95.13 30 35 995 188 -11.40 94.79 TC 57 10 257
1996 SI WA 04:00:00 TS -11.24 94.46 35 995 bom 1169 1174 P____PO_____P_ SH011996 -11.43 94.59 58 0 -11.01 93.63 3 40 988 -11.10 95.00 30 35 995 3.00 188 3 5 -11.43 94.59 TC 58 9 256
1996 SI WA 06:00:00 TS -11.32 94.15 1194 1194 O____OP_____O_ jtwc_sh SH011996 -11.50 94.20 60 0 -11.10 93.40 3 40 988 3.00 3.00 -11.17 94.80 30 38 991 188 -11.50 94.20 TC 60 9 257
1996 SI WA 07:00:00 TS -11.35 93.99 40 990 bom 1214 1214 P____PO_____P_ SH011996 -11.54 93.99 60 0 -11.14 93.28 3 40 988 -11.20 94.70 30 40 990 3.00 188 3 5 -11.54 93.99 TC 60 10 258
1996 SI WA 09:00:00 TS -11.42 93.66 1229 1229 P____PP_____P_ SH011996 -11.61 93.57 62 0 -11.20 93.05 3 40 988 -11.27 94.44 30 43 990 188 -11.61 93.57 TC 62 10 258
1996 SI WA 10:00:00 TS -11.45 93.49 45 990 bom 1249 1249 P____PO_____P_ SH011996 -11.64 93.37 63 0 -11.23 92.93 3 40 988 -11.30 94.30 30 45 990 3.00 188 3 5 -11.64 93.37 TC 63 9 258
1996 SI WA 12:00:00 TS -11.52 93.19 1265 1265 O____OP_____O_ jtwc_sh SH011996 -11.70 93.00 65 1 -11.30 92.70 3 40 988 3.00 3.00 -11.37 94.04 30 48 986 205 -11.70 93.00 TC 65 9 258
1996 SI WA 13:00:00 TS -11.55 93.04 50 985 bom 1276 1286 P____PO_____P_ SH011996 -11.72 92.84 65 1 -11.35 92.58 3 40 987 -11.40 93.90 30 50 985 3.50 215 3 5 -11.72 92.84 TC 65 8 259
1996 SI WA 15:00:00 TS -11.60 92.77 1297 1297 P____PP_____P_ SH011996 -11.76 92.57 65 1 -11.46 92.35 3 42 986 -11.41 93.57 30 50 985 215 -11.76 92.57 TC 65 8 260
1996 SI WA 16:00:00 TS -11.62 92.63 50 985 bom 1309 1309 P____PO_____P_ SH011996 -11.78 92.44 65 1 -11.51 92.23 3 43 985 -11.40 93.40 30 50 985 3.50 215 3 5 -11.78 92.44 TC 65 8 262
1996 SI WA 18:00:00 TS -11.65 92.37 1321 1321 O____OP_____O_ jtwc_sh SH011996 -11.80 92.20 65 1 -11.60 92.00 3 45 984 3.50 3.50 -11.40 93.07 30 50 985 215 -11.80 92.20 TC 65 8 264
1996 SI WA 19:00:00 TS -11.66 92.23 50 985 bom 1342 1342 P____PO_____P_ SH011996 -11.81 92.07 65 1 -11.63 91.89 3 45 982 -11.40 92.90 30 50 985 3.50 215 3 5 -11.81 92.07 TC 65 8 267
1996 SI WA 21:00:00 TS -11.67 91.94 1361 1361 P____PP_____P_ SH011996 -11.81 91.80 65 1 -11.66 91.66 3 47 981 -11.40 92.50 30 53 981 215 -11.81 91.80 TC 65 9 268
1996 SI WA 22:00:00 TS -11.67 91.79 55 980 bom 1367 1367 P____PO_____P_ SH011996 -11.81 91.67 65 1 -11.67 91.54 3 48 979 -11.40 92.30 30 55 980 4.00 215 3 5 -11.81 91.67 TC 65 8 270
1996 SI WA 1995-11-19 00:00:00 TS -11.67 91.52 1386 1386 O____OP_____O_ jtwc_sh SH011996 -11.80 91.40 65 1 -11.70 91.30 3 50 978 4.00 4.00 -11.40 91.97 30 55 980 215 -11.80 91.40 TC 65 8 270
1996 SI WA 01:00:00 TS -11.68 91.38 55 980 bom 1393 1393 P____PO_____P_ SH011996 -11.79 91.27 65 1 -11.73 91.18 3 50 977 -11.40 91.80 30 55 980 4.00 215 3 5 -11.79 91.27 TC 65 8 270
1996 SI WA 03:00:00 TS -11.68 91.09 1413 1413 P____PP_____P_ SH011996 -11.75 91.01 67 1 -11.81 90.92 3 52 976 -11.40 91.41 30 58 976 215 -11.75 91.01 TC 67 9 270
1996 SI WA 04:00:00 TS -11.68 90.93 60 975 bom 1426 1426 P____PO_____P_ SH011996 -11.73 90.87 68 1 -11.84 90.79 3 53 975 -11.40 91.20 30 60 975 4.00 215 3 5 -11.73 90.87 TC 68 9 270
1996 SI WA 06:00:00 TS -11.67 90.63 1447 1447 O____OP_____O_ jtwc_sh SH011996 -11.70 90.60 70 1 -11.90 90.50 3 55 975 4.00 4.00 -11.40 90.80 30 63 971 232 -11.70 90.60 TC 70 9 270
1996 SI WA 07:00:00 TS -11.68 90.47 65 970 bom 1454 1461 P____PO_____P_ SH011996 -11.70 90.46 71 1 -11.91 90.34 3 56 973 -11.40 90.60 40 65 970 4.50 242 3 5 -11.70 90.46 TC 71 10 269
1996 SI WA 09:00:00 TS -11.68 90.14 1482 1482 P____PP_____P_ SH011996 -11.70 90.17 75 1 -11.92 90.01 3 60 970 -11.40 90.20 40 68 966 242 -11.70 90.17 TC 75 10 270
1996 SI MM 10:00:00 TS -11.68 89.97 70 965 bom 1490 1497 P____PO_____P_ SH011996 -11.70 90.01 76 1 -11.92 89.84 3 61 968 -11.40 90.00 40 70 965 4.50 242 3 5 -11.70 90.01 TC 76 10 271
1996 SI MM 12:00:00 TS -11.67 89.62 65 965 reunion 1519 1519 O____OP_____O_ jtwc_sh SH011996 -11.70 89.70 80 1 -11.90 89.50 4 65 965 4.50 4.50 -11.40 89.59 40 76 961 242 -11.70 89.70 TC 80 10 272
1996 SI MM 13:00:00 TS -11.67 89.45 1527 1534 P____PO_____P_ SH011996 -11.69 89.54 81 1 -11.89 89.33 4 65 965 -11.40 89.40 40 80 960 5.00 242 3 5 -11.69 89.54 TC 81 10 274
1996 SI MM 15:00:00 TS -11.64 89.12 1549 1549 P____PP_____P_ SH011996 -11.65 89.21 85 2 -11.86 88.99 4 65 965 -11.40 89.06 40 83 956 242 -11.65 89.21 TC 85 10 275
1996 SI MM 16:00:00 TS -11.63 88.95 1557 1565 P____PO_____P_ SH011996 -11.63 89.04 86 2 -11.84 88.83 4 65 965 -11.40 88.90 40 85 955 5.00 242 3 5 -11.63 89.04 TC 86 10 275
1996 SI MM 18:00:00 TS -11.60 88.62 65 965 reunion 1588 1588 O____OP_____O_ jtwc_sh SH011996 -11.60 88.70 90 2 -11.80 88.50 4 65 965 4.50 4.50 -11.40 88.57 40 85 951 242 -11.60 88.70 TC 90 10 274
1996 SI MM 19:00:00 TS -11.59 88.45 1596 1604 P____PO_____P_ SH011996 -11.59 88.53 91 2 -11.78 88.34 4 65 963 -11.40 88.40 40 85 950 5.00 242 3 5 -11.59 88.53 TC 91 10 272
1996 SI MM 21:00:00 TS -11.58 88.13 1628 1628 P____PP_____P_ SH011996 -11.59 88.20 95 2 -11.75 88.04 4 67 960 -11.40 88.07 40 91 943 242 -11.59 88.20 TC 95 10 271
1996 SI MM 22:00:00 TS -11.58 87.97 1636 1644 P____PO_____P_ SH011996 -11.59 88.03 96 3 -11.73 87.89 4 68 958 -11.40 87.90 40 95 940 5.50 242 8 3 5 -11.59 88.03 TC 96 10 271
1996 SI MM 1995-11-20 00:00:00 TS -11.57 87.64 70 955 reunion 1669 1669 O____OP_____O_ jtwc_sh SH011996 -11.60 87.70 100 3 -11.70 87.60 4 70 955 5.00 5.00 -11.40 87.56 40 98 933 242 -11.60 87.70 TC 100 10 271
1996 SI MM 01:00:00 TS -11.57 87.47 1677 1685 P____PO_____P_ SH011996 -11.60 87.53 102 3 -11.68 87.44 4 71 953 -11.40 87.40 40 100 930 6.00 242 8 4 5 -11.60 87.53 TC 102 10 273
1996 SI MM 03:00:00 TS -11.55 87.15 1702 1702 P____PP_____P_ SH011996 -11.59 87.18 107 3 -11.64 87.13 4 75 950 -11.38 87.12 40 103 926 242 -11.59 87.18 TC 107 9 272
1996 SI MM 04:00:00 TS -11.55 87.00 1719 1719 P____PO_____P_ SH011996 -11.59 87.01 110 3 -11.63 86.98 4 76 948 -11.40 87.00 40 105 925 6.00 242 8 4 5 -11.59 87.01 TC 110 8 266
1996 SI MM 06:00:00 TS -11.58 86.72 80 945 reunion 1744 1744 O____OP_____O_ jtwc_sh SH011996 -11.60 86.70 115 4 -11.60 86.70 4 80 945 5.50 5.50 -11.53 86.79 40 108 921 242 -11.60 86.70 TC 115 8 263
1996 SI MM 07:00:00 TS -11.60 86.60 1753 1753 P____PO_____P_ SH011996 -11.61 86.56 116 4 -11.58 86.59 4 81 942 -11.60 86.70 40 110 920 6.50 242 11 4 5 -11.61 86.56 TC 116 7 263
1996 SI MM 09:00:00 TS -11.62 86.38 1770 1770 P____PP_____P_ SH011996 -11.63 86.31 120 4 -11.56 86.38 4 85 937 -11.67 86.50 40 110 920 242 -11.63 86.31 TC 120 6 263
1996 SI MM 10:00:00 TS -11.64 86.27 1779 1779 P____PO_____P_ SH011996 -11.65 86.20 121 4 -11.56 86.29 4 86 934 -11.70 86.40 40 110 920 6.50 242 11 4 5 -11.65 86.20 TC 121 6 257
1996 SI MM 12:00:00 TS -11.69 86.07 90 930 reunion 1803 1803 O____OP_____O_ jtwc_sh SH011996 -11.70 86.00 125 4 -11.60 86.10 4 90 930 6.00 6.00 -11.76 86.20 40 116 916 242 -11.70 86.00 TC 125 6 253
1996 SI MM 13:00:00 TS -11.73 85.97 1811 1811 P____PO_____P_ SH011996 -11.74 85.91 125 4 -11.64 85.98 4 90 929 -11.80 86.10 40 120 915 7.00 242 10 4 5 -11.74 85.91 TC 125 7 243
1996 SI MM 15:00:00 TS -11.84 85.77 1836 1836 P____PP_____P_ SH011996 -11.83 85.74 127 4 -11.76 85.73 4 92 927 -11.94 85.90 40 120 915 242 -11.83 85.74 TC 127 7 238
1996 SI MM 16:00:00 TS -11.90 85.68 1851 1851 P____PO_____P_ SH011996 -11.89 85.66 128 4 -11.84 85.61 4 93 926 -12.00 85.80 40 120 915 7.00 242 9 4 5 -11.89 85.66 TC 128 6 237
1996 SI MM 18:00:00 TS -12.02 85.50 95 925 reunion 1875 1875 O____OP_____O_ jtwc_sh SH011996 -12.00 85.50 130 4 -12.00 85.40 4 95 925 6.00 6.00 -12.06 85.59 40 120 915 242 -12.00 85.50 TC 130 6 237
1996 SI MM 19:00:00 TS -12.07 85.42 1891 1891 P____PO_____P_ SH011996 -12.04 85.42 131 4 -12.08 85.33 4 94 925 -12.10 85.50 40 120 915 7.00 242 10 4 5 -12.04 85.42 TC 131 6 232
1996 SI MM 21:00:00 TS -12.18 85.28 1906 1906 P____PP_____P_ SH011996 -12.13 85.26 135 4 -12.25 85.22 4 93 926 -12.22 85.37 40 116 918 242 -12.13 85.26 TC 135 6 228
1996 SI MM 22:00:00 TS -12.25 85.21 1921 1921 P____PO_____P_ SH011996 -12.18 85.17 136 4 -12.34 85.18 4 92 926 -12.30 85.30 40 115 920 6.50 242 10 4 5 -12.18 85.17 TC 136 6 225
1996 SI MM 1995-11-21 00:00:00 TS -12.40 85.05 92 927 reunion 1937 1937 O____OP_____O_ jtwc_sh SH011996 -12.30 85.00 140 5 -12.50 85.10 4 92 927 6.00 6.00 -12.51 85.11 40 115 920 242 -12.30 85.00 TC 140 7 226
1996 SI MM 01:00:00 TS -12.48 84.96 1952 1961 P____PO_____P_ SH011996 -12.37 84.90 141 5 -12.57 85.05 4 91 927 -12.60 85.00 40 115 920 6.50 242 10 4 5 -12.37 84.90 TC 141 7 231
1996 SI MM 03:00:00 TS -12.62 84.78 1976 1976 P____PP_____P_ SH011996 -12.54 84.70 145 5 -12.71 84.95 4 91 928 -12.67 84.78 40 115 920 242 -12.54 84.70 TC 145 7 232
1996 SI MM 04:00:00 TS -12.69 84.70 1992 1992 P____PO_____P_ SH011996 -12.63 84.60 146 5 -12.78 84.90 4 90 929 -12.70 84.70 40 115 920 6.50 242 9 4 5 -12.63 84.60 TC 146 6 227
1996 SI MM 06:00:00 TS -12.83 84.56 90 930 reunion 2007 2007 O____OP_____O_ jtwc_sh SH011996 -12.80 84.40 150 5 -12.90 84.80 4 90 930 5.50 6.00 -12.82 84.62 40 111 923 242 -12.80 84.40 TC 150 6 223
1996 SI MM 07:00:00 TS -12.90 84.49 2023 2023 P____PO_____P_ SH011996 -12.87 84.31 148 5 -12.95 84.75 4 90 930 -12.90 84.60 40 110 925 6.50 242 9 4 5 -12.87 84.31 TC 148 6 221
1996 SI MM 09:00:00 TS -13.04 84.37 2038 2038 P____PP_____P_ SH011996 -13.01 84.13 145 5 -13.05 84.66 4 90 930 -13.11 84.55 40 110 925 242 -13.01 84.13 TC 145 6 221
1996 SI MM 10:00:00 TS -13.11 84.30 2053 2053 P____PO_____P_ SH011996 -13.07 84.05 143 5 -13.10 84.61 4 90 930 -13.20 84.50 40 110 925 6.50 242 9 4 5 -13.07 84.05 TC 143 5 230
1996 SI MM 12:00:00 TS -13.22 84.15 90 930 reunion 2069 2069 O____OP_____O_ jtwc_sh SH011996 -13.20 83.90 140 5 -13.20 84.50 4 90 930 5.00 6.00 -13.27 84.30 40 103 928 242 -13.20 83.90 TC 140 5 233
1996 SI MM 13:00:00 TS -13.27 84.08 2084 2084 P____PO_____P_ SH011996 -13.27 83.84 138 5 -13.26 84.44 4 89 931 -13.30 84.20 40 100 930 6.00 242 4 5 -13.27 83.84 TC 138 5 226
1996 SI MM 15:00:00 TS -13.41 83.96 2100 2100 P____PP_____P_ SH011996 -13.40 83.73 135 4 -13.38 84.31 4 87 934 -13.44 84.06 40 100 930 242 -13.40 83.73 TC 135 5 221
1996 SI MM 16:00:00 TS -13.47 83.90 2115 2115 P____PO_____P_ SH011996 -13.47 83.68 133 4 -13.45 84.25 4 86 935 -13.50 84.00 40 100 930 6.00 242 9 4 5 -13.47 83.68 TC 133 5 221
1996 SI MM 18:00:00 TS -13.59 83.79 85 938 reunion 2130 2130 O____OP_____O_ jtwc_sh SH011996 -13.60 83.60 130 4 -13.60 84.10 4 85 938 5.00 5.50 -13.56 83.86 40 96 933 242 -13.60 83.60 TC 130 5 222
1996 SI MM 19:00:00 TS -13.65 83.73 2146 2146 P____PO_____P_ SH011996 -13.66 83.56 130 4 -13.68 84.01 4 84 939 -13.60 83.80 40 95 935 5.50 242 4 5 -13.66 83.56 TC 130 5 218
1996 SI MM 21:00:00 TS -13.79 83.63 2161 2161 P____PP_____P_ SH011996 -13.79 83.48 130 4 -13.85 83.84 4 82 941 -13.72 83.73 40 95 935 242 -13.79 83.48 TC 130 5 214
1996 SI MM 22:00:00 TS -13.86 83.59 2168 2168 P____PO_____P_ SH011996 -13.86 83.45 130 4 -13.94 83.75 4 81 942 -13.80 83.70 40 95 935 5.50 242 10 4 5 -13.86 83.45 TC 130 5 206
1996 SI MM 1995-11-22 00:00:00 TS -14.02 83.51 80 945 reunion 2183 2183 O____OP_____O_ jtwc_sh SH011996 -14.00 83.40 130 4 -14.10 83.60 4 80 945 5.00 5.50 -13.99 83.63 40 95 938 242 -14.00 83.40 TC 130 5 205
1996 SI MM 01:00:00 TS -14.10 83.48 2190 2190 P____PO_____P_ SH011996 -14.07 83.38 130 4 -14.17 83.55 4 79 945 -14.10 83.60 40 95 940 5.50 242 4 5 -14.07 83.38 TC 130 5 197
1996 SI MM 03:00:00 TS -14.27 83.42 2213 2213 P____PP_____P_ SH011996 -14.23 83.34 130 4 -14.29 83.47 4 77 947 -14.30 83.54 40 95 940 242 -14.23 83.34 TC 130 5 195
1996 SI MM 04:00:00 TS -14.35 83.40 2213 2219 P____PO_____P_ SH011996 -14.32 83.33 130 4 -14.36 83.44 4 76 948 -14.40 83.50 40 95 940 5.50 242 8 4 5 -14.32 83.33 TC 130 5 197
1996 SI MM 06:00:00 TS -14.53 83.34 75 950 reunion 2235 2235 O____OP_____O_ jtwc_sh SH011996 -14.50 83.30 130 4 -14.50 83.40 4 75 950 4.50 5.00 -14.60 83.37 40 95 940 242 -14.50 83.30 TC 130 6 196
1996 SI MM 07:00:00 TS -14.62 83.31 2242 2242 P____PO_____P_ SH011996 -14.60 83.29 129 4 -14.59 83.38 4 74 950 -14.70 83.30 40 95 940 5.50 242 5 4 5 -14.60 83.29 TC 129 6 195
1996 SI MM 09:00:00 TS -14.82 83.26 2256 2256 P____PP_____P_ SH011996 -14.80 83.26 127 4 -14.78 83.35 4 72 952 -14.90 83.17 40 95 940 242 -14.80 83.26 TC 127 6 195
1996 SI MM 10:00:00 TS -14.92 83.23 2271 2271 P____PO_____P_ SH011996 -14.90 83.24 126 4 -14.89 83.34 4 71 953 -15.00 83.10 40 95 940 5.50 242 5 4 5 -14.90 83.24 TC 126 6 197
1996 SI MM 12:00:00 TS -15.13 83.16 70 955 reunion 2286 2286 O____OP_____O_ jtwc_sh SH011996 -15.10 83.20 125 4 -15.10 83.30 4 70 955 5.00 5.00 -15.21 82.96 40 95 940 242 -15.10 83.20 TC 125 6 197
1996 SI MM 13:00:00 TS -15.22 83.13 2301 2301 P____PO_____P_ SH011996 -15.19 83.17 125 4 -15.21 83.27 4 71 953 -15.30 82.90 40 95 940 5.50 242 5 4 5 -15.19 83.17 TC 125 6 201
1996 SI MM 15:00:00 TS -15.39 83.06 2315 2315 P____PP_____P_ SH011996 -15.36 83.10 125 4 -15.42 83.20 4 75 950 -15.43 82.82 40 95 940 242 -15.36 83.10 TC 125 5 201
1996 SI MM 16:00:00 TS -15.47 83.02 2331 2331 P____PO_____P_ SH011996 -15.44 83.06 125 4 -15.52 83.16 4 76 948 -15.50 82.80 40 95 940 5.50 242 5 4 5 -15.44 83.06 TC 125 5 196
1996 SI MM 18:00:00 TS -15.65 82.97 80 945 reunion 2345 2345 O____OP_____O_ jtwc_sh SH011996 -15.60 83.00 125 4 -15.70 83.10 4 80 945 5.50 5.50 -15.70 82.79 40 95 940 242 -15.60 83.00 TC 125 5 192
1996 SI MM 19:00:00 TS -15.74 82.96 2345 2345 P____PO_____P_ SH011996 -15.68 82.98 125 4 -15.78 83.08 4 80 944 -15.80 82.80 40 95 940 5.50 242 4 4 5 -15.68 82.98 TC 125 5 189
1996 SI MM 21:00:00 TS -15.89 82.94 2368 2368 P____PP_____P_ SH011996 -15.85 82.95 125 4 -15.91 83.04 4 81 942 -15.94 82.80 40 91 943 242 -15.85 82.95 TC 125 5 188
1996 SI MM 22:00:00 TS -15.96 82.92 2375 2375 P____PO_____P_ SH011996 -15.93 82.94 125 4 -15.98 83.03 4 81 941 -16.00 82.80 40 90 945 5.50 242 4 4 5 -15.93 82.94 TC 125 4 191
1996 SI MM 1995-11-23 00:00:00 TS -16.11 82.90 82 940 reunion 2382 2382 O____OP_____O_ jtwc_sh SH011996 -16.10 82.90 125 4 -16.10 83.00 4 82 940 5.50 5.50 -16.13 82.81 40 86 948 242 -16.10 82.90 TC 125 5 190
1996 SI MM 01:00:00 TS -16.18 82.88 2390 2390 P____PO_____P_ SH011996 -16.19 82.87 124 4 -16.17 82.98 4 82 940 -16.20 82.80 40 85 950 5.00 242 4 4 5 -16.19 82.87 TC 124 5 200
1996 SI MM 03:00:00 TS -16.34 82.82 2405 2405 P____PP_____P_ SH011996 -16.36 82.81 122 4 -16.30 82.94 4 82 940 -16.33 82.74 40 81 953 242 -16.36 82.81 TC 122 5 201
1996 SI MM 04:00:00 TS -16.41 82.79 2413 2413 P____PO_____P_ SH011996 -16.44 82.77 121 4 -16.37 82.93 4 82 940 -16.40 82.70 40 80 955 5.00 242 4 4 5 -16.44 82.77 TC 121 5 200
1996 SI MM 06:00:00 TS -16.58 82.73 82 940 reunion 2435 2435 O____OP_____O_ jtwc_sh SH011996 -16.60 82.70 120 4 -16.50 82.90 4 82 940 5.50 5.50 -16.60 82.62 40 76 958 242 -16.60 82.70 TC 120 5 198
1996 SI MM 07:00:00 TS -16.66 82.71 2443 2443 P____PO_____P_ SH011996 -16.68 82.67 119 4 -16.57 82.90 4 81 940 -16.70 82.60 40 75 960 4.50 242 4 4 5 -16.68 82.67 TC 119 5 189
1996 SI MM 09:00:00 TS -16.80 82.69 2450 2450 P____PP_____P_ SH011996 -16.82 82.60 117 4 -16.71 82.90 4 81 942 -16.85 82.66 40 75 960 242 -16.82 82.60 TC 117 4 0
1996 SI MM 10:00:00 TS -16.86 82.68 2458 2458 P____PO_____P_ SH011996 -16.89 82.57 116 4 -16.77 82.90 4 80 943 -16.90 82.70 40 75 960 4.50 242 3 4 5 -16.89 82.57 TC 116 3 189
1996 SI MM 12:00:00 TS -16.97 82.68 80 945 reunion 2465 2465 O____OP_____O_ jtwc_sh SH011996 -17.00 82.50 115 4 -16.90 82.90 4 80 945 5.00 5.50 -16.98 82.81 40 71 963 242 -17.00 82.50 TC 115 3 0
1996 SI MM 13:00:00 TS -17.02 82.66 2465 2465 P____PO_____P_ SH011996 -17.05 82.47 112 3 -16.96 82.90 4 80 945 -17.00 82.80 40 70 965 4.50 242 3 5 -17.05 82.47 TC 112 3 226
1996 SI MM 15:00:00 TS -17.09 82.55 2481 2481 P____PP_____P_ SH011996 -17.13 82.41 107 3 -17.08 82.90 4 80 945 -17.01 82.49 40 70 965 242 -17.13 82.41 TC 107 4 240
1996 SI MM 16:00:00 TS -17.11 82.49 2488 2488 P____PO_____P_ SH011996 -17.16 82.38 104 3 -17.13 82.88 4 80 945 -17.00 82.30 40 70 965 4.50 242 3 5 -17.16 82.38 TC 104 4 252
1996 SI MM 18:00:00 TS -17.15 82.36 80 945 reunion 2496 2496 O____OP_____O_ jtwc_sh SH011996 -17.20 82.30 100 3 -17.20 82.80 4 80 945 4.50 5.50 -17.00 82.03 40 66 968 242 -17.20 82.30 TC 100 4 255
1996 SI MM 19:00:00 TS -17.17 82.28 2512 2512 P____PO_____P_ SH011996 -17.22 82.25 98 3 -17.22 82.74 4 78 946 -17.00 81.90 40 65 970 4.50 242 3 5 -17.22 82.25 TC 98 5 263
1996 SI MM 21:00:00 TS -17.18 82.11 2528 2528 P____PP_____P_ SH011996 -17.24 82.12 95 2 -17.24 82.56 4 75 950 -17.00 81.64 40 61 973 242 -17.24 82.12 TC 95 5 268
1996 SI MM 22:00:00 TS -17.18 82.01 2536 2536 P____PO_____P_ SH011996 -17.23 82.05 93 2 -17.23 82.45 4 73 951 -17.00 81.50 30 60 975 4.00 242 3 5 -17.23 82.05 TC 93 6 275
1996 SI MM 1995-11-24 00:00:00 TS -17.15 81.79 70 955 reunion 2544 2540 O____OP_____O_ jtwc_sh SH011996 -17.20 81.90 90 2 -17.20 82.20 4 70 955 4.00 5.00 -17.00 81.17 30 56 978 242 -17.20 81.90 TC 90 6 279
1996 SI MM 01:00:00 TS -17.13 81.69 2540 2519 P____PO_____P_ SH011996 -17.16 81.84 87 2 -17.18 82.07 4 68 956 -17.00 81.00 30 55 980 4.00 242 3 5 -17.16 81.84 TC 87 7 286
1996 SI MM 03:00:00 TS -17.06 81.46 2519 2480 P____PP_____P_ SH011996 -17.06 81.69 82 1 -17.11 81.79 4 66 960 -17.00 80.66 30 51 981 233 -17.06 81.69 TC 82 7 286
1996 SI MM 06:00:00 TS -16.95 81.06 62 965 reunion 2482 2462 O____OP_____O_ jtwc_sh SH011996 -16.90 81.40 75 1 -17.00 81.30 3 62 965 3.50 4.50 -17.00 80.16 30 46 984 219 -16.90 81.40 TC 75 8 285
1996 SI MM 07:00:00 TS -16.92 80.91 2462 2430 P____PO_____P_ SH011996 -16.86 81.27 72 1 -16.98 81.12 3 60 966 -17.00 80.00 30 45 985 3.00 215 3 5 -16.86 81.27 TC 72 9 279
1996 SI MM 09:00:00 TS -16.88 80.59 2430 2381 P____PP_____P_ SH011996 -16.78 80.95 67 1 -16.94 80.74 3 58 970 -17.00 79.72 30 41 988 206 -16.78 80.95 TC 67 10 277
1996 SI MM 12:00:00 TS -16.82 80.06 55 975 reunion 2381 2360 O____OP_____O_ jtwc_sh SH011996 -16.70 80.40 60 0 -16.90 80.10 3 55 975 2.50 4.00 -17.00 79.33 30 36 993 192 -16.70 80.40 TC 60 10 276
1996 SI MM 13:00:00 TS -16.81 79.88 2360 2319 P____PO_____P_ SH011996 -16.67 80.21 57 0 -16.88 79.87 3 53 976 -17.00 79.20 30 35 995 3.00 188 3 5 -16.67 80.21 TC 57 11 275
1996 SI MM 15:00:00 TS -16.78 79.49 2319 2256 P____PP_____P_ SH011996 -16.63 79.82 52 0 -16.84 79.40 3 50 979 -17.00 78.90 30 31 996 188 -16.63 79.82 TC 52 11 273
1996 SI MM 18:00:00 TS -16.75 78.89 45 984 reunion 2259 2238 O____OP_____O_ jtwc_sh SH011996 -16.60 79.20 45 0 -16.80 78.70 3 45 984 2.00 3.50 -17.00 78.45 30 26 999 188 -16.60 79.20 TC 45 11 272
1996 SI MM 19:00:00 TS -16.75 78.69 2238 2207 P____PO_____P_ SH011996 -16.59 78.99 43 0 -16.81 78.49 3 43 985 -17.00 78.30 20 25 1000 2.00 188 3 5 -16.59 78.99 TC 43 11 272
1996 SI MM 21:00:00 TS -16.73 78.33 2197 2145 P____PP_____P_ SH011996 -16.58 78.56 40 0 -16.84 78.08 3 40 988 -17.00 78.02 20 23 1001 179 -16.58 78.56 TC 40 11 270
1996 SI MM 1995-11-25 00:00:00 TS -16.74 77.75 35 992 reunion 2135 2114 O____OP_____O_ jtwc_sh SH011996 -16.60 77.90 35 0 -16.90 77.50 3 35 992 2.00 3.00 -17.00 77.63 20 20 1003 165 -16.60 77.90 TC 35 11 270
1996 SI MM 01:00:00 TS -16.73 77.55 2114 2083 P____PO_____P_ SH011996 -16.62 77.67 34 0 -16.91 77.31 3 33 992 -17.00 77.50 20 20 1004 1.00 161 3 5 -16.62 77.67 TC 34 12 269
1996 SI MM 03:00:00 TS -16.75 77.12 2073 2008 P____P______P_ SH011996 -16.67 77.21 32 -1 -16.91 76.93 3 31 994 20 -16.67 77.21 TC 32 13 264
1996 SI MM 06:00:00 TS -16.84 76.46 28 997 reunion 2008 1944 O____O______O_ jtwc_sh SH011996 -16.80 76.50 30 -1 -16.90 76.40 2 28 997 1.50 2.50 20 -16.80 76.50 TC 30 13 262
1996 SI MM 09:00:00 TS -16.92 75.83 1933 1879 P____P______P_ SH011996 -16.99 75.76 27 -1 -16.86 75.90 2 26 998 -16.99 75.76 TC 27 12 262
1996 SI MM 12:00:00 TS -17.00 75.27 25 1000 reunion 1879 1835 O____O______O_ jtwc_sh SH011996 -17.20 75.00 25 -1 -16.90 75.40 2 25 1000 1.50 2.00 -17.20 75.00 TC 25 9 259
1996 SI MM 15:00:00 TS -17.10 74.86 1835 1765 _____P________ SH011996 -1 -17.10 74.86 2 25 1000 TC 10 247
1996 SI MM 18:00:00 TS -17.40 74.30 25 1000 reunion 1765 1706 _____O________ -1 -17.40 74.30 2 25 1000 1.50 2.00 12 241
1996 SI MM 21:00:00 TS -17.68 73.76 1706 1637 _____P________ -1 -17.68 73.76 2 25 1001 12 240
1996 SI MM 1995-11-26 00:00:00 TS -18.00 73.20 25 1002 reunion 1637 1566 _____O________ -1 -18.00 73.20 2 25 1002 1.50 2.00 13 237
1996 SI MM 03:00:00 TS -18.38 72.60 1566 1496 _____P________ -1 -18.38 72.60 2 22 1003 14 235
1996 SI MM 06:00:00 TS -18.80 72.00 20 1004 reunion 1496 1438 _____O________ -1 -18.80 72.00 2 20 1004 1.50 1.50 14 233
1996 SI MM 09:00:00 TS -19.19 71.45 1428 1371 _____P________ -1 -19.19 71.45 2 20 1004 13 232
1996 SI MM 12:00:00 TS -19.60 70.90 20 1005 reunion 1371 1304 _____O________ -1 -19.60 70.90 2 20 1005 1.50 1.50 14 232
1996 SI MM 15:00:00 TS -20.03 70.31 1304 1240 _____P________ -1 -20.03 70.31 2 20 1005 14 231
1996 SI MM 18:00:00 TS -20.50 69.70 20 1005 reunion 1240 1177 _____O________ -1 -20.50 69.70 2 20 1005 1.50 1.50 15 231
1996 SI MM 21:00:00 TS -20.99 69.04 1167 1108 _____P________ -1 -20.99 69.04 2 20 1005 16 231
1996 SI MM 1995-11-27 00:00:00 TS -21.50 68.40 20 1006 reunion 1108 1062 _____O________ -1 -21.50 68.40 6 20 1006 1.00 1.50 15 228
1996 SI MM 03:00:00 TS -22.00 67.83 1053 1013 _____P________ -1 -22.00 67.83 6 20 1006 14 226
1996 SI MM 06:00:00 TS -22.50 67.30 20 1006 reunion 1013 _____O________ -1 -22.50 67.30 6 20 1006 1.00 1.50 14 224